• Join FlightAware (Why Join?)
  • Login
  • US Flag 
05:35AM EDT


 

Airport Tracker/Info


-or-


 

Live Flight TrackerFlight Track Log ✈ N1906H ✈ 30-Jul-2013 ✈ KPDC - KPRO

Flight Track Log - Related Links

Times and Time Zones

All times are in EDT time to prevent confusion due to time zone crossing. See the N1906H flight status page for this flight to view local times or setup timezone preferences in your user account.

Time Position Orientation Groundspeed Altitude Reporting Facility
EDT Latitude Longitude Course Direction KTS MPH feet Rate Location/Type
09:31PM 42.9792 -91.2319 241° Southwest 150 173 2,100  Level Chicago Center
09:32PM 42.9594 -91.2808 241° Southwest 149 171 2,000 120 Descending Chicago Center
09:33PM 42.9328 -91.3486 242° Southwest 148 170 2,400 420 Climbing Chicago Center
09:34PM 42.9158 -91.3894 240° Southwest 140 161 3,100 660 Climbing Minneapolis Center
09:36PM 42.8889 -91.4411 235° Southwest 129 148 4,000 420 Climbing Minneapolis Center
09:36PM 42.8653 -91.4669 219° Southwest 131 151 4,000  Level Chicago Center
09:37PM 42.8333 -91.5025 219° Southwest 140 161 4,100  Climbing Chicago Center
09:38PM 42.8017 -91.5386 220° Southwest 145 167 4,100 -60 Level Chicago Center
09:39PM 42.7692 -91.5764 220° Southwest 149 171 4,000 -60 Descending Chicago Center
09:40PM 42.7358 -91.6128 219° Southwest 149 171 4,000  Level Chicago Center
09:42PM 42.7036 -91.6478 219° Southwest 148 170 4,000  Level Chicago Center
09:43PM 42.6706 -91.6839 219° Southwest 150 173 4,000  Level Chicago Center
09:44PM 42.6322 -91.7256 219° Southwest 150 173 4,100  Climbing Chicago Center
09:45PM 42.6003 -91.7614 220° Southwest 149 171 4,100  Level Chicago Center
09:46PM 42.5675 -91.7975 219° Southwest 151 174 4,100  Level Chicago Center
09:47PM 42.5350 -91.8333 219° Southwest 151 174 4,100  Level Chicago Center
09:48PM 42.5028 -91.8689 219° Southwest 151 174 4,100  Level Chicago Center
09:49PM 42.4667 -91.9117 221° Southwest 148 170 4,100  Level Chicago Center
09:50PM 42.4547 -91.9653 253° West 147 169 4,100  Level Chicago Center
09:51PM 42.4422 -92.0192 253° West 150 173 4,100 -60 Level Chicago Center
09:52PM 42.4292 -92.0731 252° West 151 174 4,000 -60 Descending Chicago Center
09:53PM 42.4156 -92.1261 251° West 151 174 4,000  Level Chicago Center
09:54PM 42.4017 -92.1792 250° West 151 174 4,000  Level Chicago Center
09:55PM 42.3850 -92.2414 250° West 150 173 4,000  Level Chicago Center
09:56PM 42.3708 -92.2931 250° West 148 170 4,000  Level Chicago Center
09:57PM 42.3581 -92.3442 251° West 147 169 4,100  Climbing Chicago Center
09:58PM 42.3433 -92.3936 248° West 146 168 4,100  Level Chicago Center
09:59PM 42.3286 -92.4436 248° West 144 166 4,100 -60 Level Chicago Center
10:00PM 42.3136 -92.4950 248° West 146 168 4,000 -60 Descending Chicago Center
10:01PM 42.2950 -92.5567 248° West 148 170 4,000  Level Chicago Center
10:02PM 42.2794 -92.6067 247° West 147 169 4,100  Climbing Chicago Center
10:03PM 42.2642 -92.6569 248° West 146 168 4,100  Level Chicago Center
10:04PM 42.2494 -92.7075 249° West 145 167 4,100 -60 Level Chicago Center
10:05PM 42.2339 -92.7583 248° West 147 169 4,000 -60 Descending Chicago Center
10:06PM 42.2172 -92.8097 246° West 148 170 4,000  Level Chicago Center
10:07PM 42.2022 -92.8600 248° West 147 169 4,000  Level Chicago Center
10:08PM 42.1833 -92.9197 247° West 147 169 4,000  Level Chicago Center
10:09PM 42.1675 -92.9694 247° West 146 168 4,000  Level Chicago Center
10:10PM 42.1503 -93.0181 244° Southwest 145 167 4,100  Climbing Chicago Center
10:11PM 42.1275 -93.0644 237° Southwest 147 169 4,000 -60 Descending Chicago Center
10:12PM 42.0997 -93.1081 229° Southwest 150 173 4,000  Level Chicago Center
10:13PM 42.0836 -93.1503 243° Southwest 150 173 4,100  Climbing Minneapolis Center
10:14PM 42.0589 -93.1947 233° Southwest 150 173 4,100  Level Minneapolis Center
10:15PM 42.0325 -93.2422 233° Southwest 150 173 4,100  Level Minneapolis Center
10:16PM 42.0078 -93.2867 233° Southwest 149 171 4,100  Level Minneapolis Center
10:17PM 41.9831 -93.3314 233° Southwest 149 171 4,100  Level Minneapolis Center
10:18PM 41.9561 -93.3731 229° Southwest 148 170 4,100  Level Minneapolis Center
10:19PM 41.9314 -93.4175 233° Southwest 148 170 4,100  Level Minneapolis Center
10:20PM 41.9064 -93.4619 233° Southwest 149 171 4,100  Level Minneapolis Center
10:21PM 41.8775 -93.5067 229° Southwest 150 173 4,100  Level Minneapolis Center
10:22PM 41.8506 -93.5511 231° Southwest 150 173 4,100  Level Minneapolis Center
10:23PM 41.8258 -93.5953 233° Southwest 149 171 4,100 -60 Level Minneapolis Center
10:25PM 41.7867 -93.6608 231° Southwest 148 170 4,000  Descending Minneapolis Center
10:25PM 41.7742 -93.6839 234° Southwest 149 171 4,100 -60 Climbing Minneapolis Center
10:26PM 41.7453 -93.7314 231° Southwest 150 173 3,900 -300 Descending Minneapolis Center
10:27PM 41.7183 -93.7783 232° Southwest 155 178 3,600 -180 Descending Minneapolis Center
10:29PM 41.7086 -93.8294 256° West 149 171 3,600  Level Minneapolis Center
10:30PM 41.7069 -93.8825 268° West 147 169 3,600  Level Minneapolis Center
10:31PM 41.7033 -93.9358 265° West 144 166 3,600 -60 Level Minneapolis Center
10:32PM 41.7000 -93.9919 265° West 138 159 3,500 -180 Descending Minneapolis Center
10:33PM 41.7142 -94.0269 298° West 121 139 3,300 -300 Descending Minneapolis Center
10:34PM 41.7406 -94.0553 321° Northwest 120 138 3,000 -360 Descending Minneapolis Center
10:35PM 41.7647 -94.0811 321° Northwest 118 136 2,600 -480 Descending Minneapolis Center
10:36PM 41.7889 -94.1014 328° Northwest 102 117 2,100 -480 Descending Minneapolis Center
10:36PM 41.8067 -94.1250 315° West 99 114 1,700 -480 Descending Minneapolis Center